Time;durP1;ratioP1;P1;durP2;ratioP2;P2;SDS_P1;SDS_P2;PMS_P1;PMS_P2;Temp;Humidity;BMP_temperature;BMP_pressure;BME280_temperature;BME280_humidity;BME280_pressure;Samples;Min_cycle;Max_cycle;Signal;HPM_P1;HPM_P2
2022/04/10 00:00:22;;;;;;;7.10;3.40;;;;;;;0.44;100.00;98938.00;5027067;28;20033;-68
2022/04/10 00:02:47;;;;;;;6.03;2.95;;;;;;;0.50;100.00;98944.63;5031498;28;20031;-68
2022/04/10 00:05:13;;;;;;;5.78;3.00;;;;;;;0.49;100.00;98931.44;5024565;28;20109;-68
2022/04/10 00:07:38;;;;;;;7.60;3.22;;;;;;;0.47;100.00;98946.69;5027497;28;20025;-69
2022/04/10 00:10:04;;;;;;;12.45;3.42;;;;;;;0.39;100.00;98934.06;5026123;28;20465;-68
2022/04/10 00:12:33;;;;;;;6.15;3.33;;;;;;;0.56;100.00;98940.56;5031539;28;20053;-68
2022/04/10 00:14:58;;;;;;;6.75;3.28;;;;;;;0.62;100.00;98935.53;5028495;28;20034;-70
2022/04/10 00:17:23;;;;;;;6.65;3.10;;;;;;;0.56;100.00;98938.75;5028880;28;20380;-70
2022/04/10 00:19:48;;;;;;;7.20;3.65;;;;;;;0.38;100.00;98937.72;5027246;28;20021;-68
2022/04/10 00:22:14;;;;;;;6.35;3.13;;;;;;;0.40;100.00;98941.09;5031285;28;20033;-68
2022/04/10 00:24:39;;;;;;;8.07;4.28;;;;;;;0.44;100.00;98939.81;5024822;28;20026;-69
2022/04/10 00:27:05;;;;;;;9.82;3.97;;;;;;;0.35;100.00;98936.16;5030610;28;20379;-69
2022/04/10 00:29:31;;;;;;;7.35;3.33;;;;;;;0.19;100.00;98925.19;5029216;28;20498;-69
2022/04/10 00:31:56;;;;;;;9.48;3.60;;;;;;;0.27;100.00;98938.66;5025486;28;20025;-69
2022/04/10 00:34:21;;;;;;;7.35;2.90;;;;;;;0.20;100.00;98918.88;5022017;28;20561;-68
2022/04/10 00:36:47;;;;;;;6.38;2.60;;;;;;;0.26;100.00;98941.44;5029805;28;20029;-69
2022/04/10 00:39:12;;;;;;;6.05;2.80;;;;;;;0.21;100.00;98940.03;5027247;28;20028;-69
2022/04/10 00:41:37;;;;;;;3.88;2.28;;;;;;;0.10;100.00;98936.63;5030174;28;20519;-68
2022/04/10 00:44:04;;;;;;;4.50;2.40;;;;;;;0.17;100.00;98943.94;5029381;28;20028;-69
2022/04/10 00:46:29;;;;;;;3.75;2.50;;;;;;;0.08;100.00;98933.25;5033661;28;20102;-68
2022/04/10 00:48:55;;;;;;;6.65;2.42;;;;;;;0.27;100.00;98945.81;5030643;28;20065;-69
2022/04/10 00:54:04;;;;;;;5.00;2.65;;;;;;;0.63;100.00;98949.72;5026500;28;20357;-69
2022/04/10 00:56:30;;;;;;;5.35;2.40;;;;;;;0.70;100.00;98947.31;5036970;28;20040;-69
2022/04/10 00:58:55;;;;;;;6.05;2.63;;;;;;;0.71;100.00;98933.00;5036768;28;20399;-69
2022/04/10 01:01:21;;;;;;;7.13;2.83;;;;;;;0.76;100.00;98950.28;5032000;28;20041;-68
2022/04/10 01:03:46;;;;;;;3.90;2.40;;;;;;;0.85;100.00;98938.78;5032263;28;20124;-68
2022/04/10 01:06:11;;;;;;;8.02;2.70;;;;;;;0.87;100.00;98950.16;5028690;28;20029;-68
2022/04/10 01:08:37;;;;;;;6.85;2.38;;;;;;;1.05;100.00;98955.66;5022833;28;20037;-69
2022/04/10 01:11:03;;;;;;;4.35;2.15;;;;;;;0.99;100.00;98934.88;5031165;28;20026;-68
2022/04/10 01:13:28;;;;;;;5.82;2.53;;;;;;;1.04;100.00;98937.97;5029732;28;20441;-69
2022/04/10 01:15:54;;;;;;;5.60;2.88;;;;;;;1.07;100.00;98963.50;5029551;28;20071;-69
2022/04/10 01:18:20;;;;;;;6.00;2.80;;;;;;;0.84;100.00;98930.97;5034208;28;20036;-68
2022/04/10 01:20:45;;;;;;;8.77;2.88;;;;;;;0.99;100.00;98963.34;5023758;28;20056;-71
2022/04/10 01:23:10;;;;;;;4.90;2.60;;;;;;;0.78;100.00;98942.16;5032107;28;20033;-68
2022/04/10 01:25:36;;;;;;;5.03;1.95;;;;;;;1.04;100.00;98963.78;5032365;28;20025;-69
2022/04/10 01:28:09;;;;;;;4.32;2.25;;;;;;;0.94;100.00;98947.78;5032919;28;20467;-68
2022/04/10 01:30:35;;;;;;;4.65;2.08;;;;;;;0.94;100.00;98969.06;5025113;28;20076;-68
2022/04/10 01:33:00;;;;;;;4.13;2.10;;;;;;;0.88;100.00;98961.66;5032068;28;20065;-68
2022/04/10 01:35:26;;;;;;;3.92;2.08;;;;;;;0.94;100.00;98961.09;5029721;28;20032;-68
2022/04/10 01:37:53;;;;;;;5.18;2.15;;;;;;;0.75;100.00;98969.91;5031121;28;20116;-68
2022/04/10 01:40:19;;;;;;;7.78;2.50;;;;;;;0.47;100.00;98939.53;5031495;28;20083;-68
2022/04/10 01:42:44;;;;;;;7.20;2.25;;;;;;;0.71;100.00;98970.28;5031588;28;20022;-69
2022/04/10 01:45:09;;;;;;;7.70;2.13;;;;;;;0.80;100.00;98975.66;5032295;28;20033;-68
2022/04/10 01:47:35;;;;;;;8.18;2.22;;;;;;;0.97;100.00;98963.50;5028778;28;20044;-68
2022/04/10 01:50:00;;;;;;;4.90;2.25;;;;;;;0.93;100.00;98962.06;5028420;28;20133;-69
2022/04/10 01:52:25;;;;;;;5.22;2.30;;;;;;;1.01;100.00;98959.56;5033396;28;20033;-69
2022/04/10 01:54:53;;;;;;;3.55;2.00;;;;;;;1.06;100.00;98970.66;5023002;28;20029;-69
2022/04/10 01:57:18;;;;;;;7.72;1.83;;;;;;;1.08;100.00;98954.53;5027838;28;20034;-68
2022/04/10 01:59:43;;;;;;;5.35;1.55;;;;;;;1.09;100.00;98961.53;5027016;28;20097;-68
2022/04/10 02:02:08;;;;;;;4.80;2.95;;;;;;;0.92;100.00;98960.41;5033398;28;20495;-69
2022/04/10 02:04:34;;;;;;;5.88;2.20;;;;;;;0.62;100.00;98967.47;5027161;28;20037;-69
2022/04/10 02:07:00;;;;;;;4.30;2.28;;;;;;;0.35;100.00;98951.28;5030249;28;20394;-68
2022/04/10 02:09:25;;;;;;;8.20;2.55;;;;;;;0.28;100.00;98966.09;5029281;28;20528;-69
2022/04/10 02:11:50;;;;;;;8.55;2.72;;;;;;;0.13;100.00;98970.94;5026924;28;20079;-69
2022/04/10 02:14:15;;;;;;;5.18;2.72;;;;;;;-0.09;100.00;98954.19;5029598;28;20051;-68
2022/04/10 02:16:41;;;;;;;6.47;2.35;;;;;;;0.06;100.00;98973.31;5032309;28;20407;-69
2022/04/10 02:19:06;;;;;;;8.43;3.60;;;;;;;0.22;100.00;98962.16;5031504;28;20479;-68
2022/04/10 02:21:31;;;;;;;7.43;2.72;;;;;;;0.31;100.00;98968.50;5031331;28;20088;-68
2022/04/10 02:23:57;;;;;;;7.57;3.13;;;;;;;0.40;100.00;98959.72;5028879;28;20029;-68
2022/04/10 02:26:22;;;;;;;9.88;2.58;;;;;;;0.41;100.00;98964.88;5032643;28;20646;-68
2022/04/10 02:28:47;;;;;;;5.70;2.13;;;;;;;0.37;100.00;98970.63;5027898;28;20037;-68
2022/04/10 02:31:13;;;;;;;6.18;2.60;;;;;;;0.28;100.00;98971.44;5030868;28;20025;-68
2022/04/10 02:33:38;;;;;;;7.15;2.72;;;;;;;0.18;100.00;98971.38;5029124;28;20029;-69
2022/04/10 02:36:04;;;;;;;7.35;2.65;;;;;;;0.14;100.00;98977.97;5030597;28;20029;-69
2022/04/10 02:38:29;;;;;;;8.60;3.45;;;;;;;0.03;100.00;98967.38;5028103;28;20499;-69
2022/04/10 02:40:54;;;;;;;7.60;3.78;;;;;;;0.19;100.00;98976.59;5028302;28;20108;-69
2022/04/10 02:43:20;;;;;;;5.07;3.03;;;;;;;0.07;100.00;98972.31;5032643;28;20029;-69
2022/04/10 02:45:45;;;;;;;8.73;3.63;;;;;;;0.16;100.00;98955.56;5031722;28;20040;-69
2022/04/10 02:48:11;;;;;;;8.30;4.35;;;;;;;0.29;100.00;98981.09;5029345;28;20037;-69
2022/04/10 02:50:40;;;;;;;5.88;3.33;;;;;;;0.22;100.00;98970.97;5030707;28;20467;-69
2022/04/10 02:53:07;;;;;;;9.25;3.30;;;;;;;0.20;100.00;98978.25;5024795;28;20612;-69
2022/04/10 02:55:33;;;;;;;8.70;2.83;;;;;;;0.11;100.00;98973.75;5031438;28;20109;-69
2022/04/10 02:57:58;;;;;;;5.63;2.65;;;;;;;-0.10;100.00;98972.94;5029086;28;20029;-70
2022/04/10 03:00:24;;;;;;;12.25;4.40;;;;;;;-0.02;100.00;98978.44;5030765;28;20033;-69
2022/04/10 03:02:49;;;;;;;7.30;3.13;;;;;;;0.03;100.00;98978.88;5031615;28;20025;-68
2022/04/10 03:05:15;;;;;;;11.00;2.60;;;;;;;-0.03;100.00;98979.41;5025547;28;20034;-69
2022/04/10 03:07:40;;;;;;;3.83;2.58;;;;;;;-0.18;100.00;98986.03;5021235;28;20052;-69
2022/04/10 03:10:06;;;;;;;5.88;2.80;;;;;;;-0.24;100.00;98966.13;5030837;28;20018;-69
2022/04/10 03:12:32;;;;;;;5.20;2.72;;;;;;;-0.29;100.00;98982.50;5028734;28;20660;-68
2022/04/10 03:14:57;;;;;;;4.38;2.78;;;;;;;-0.14;100.00;98982.13;5028239;28;20426;-68
2022/04/10 03:17:22;;;;;;;8.15;2.67;;;;;;;-0.01;100.00;98988.09;5027845;28;20463;-69
2022/04/10 03:19:48;;;;;;;5.07;2.75;;;;;;;0.07;100.00;98982.94;5025649;28;20033;-69
2022/04/10 03:22:13;;;;;;;4.53;2.40;;;;;;;0.05;100.00;98976.06;5026810;28;20097;-68
2022/04/10 03:24:38;;;;;;;7.97;2.47;;;;;;;0.05;100.00;98992.88;5029968;28;20035;-69
2022/04/10 03:27:04;;;;;;;5.63;2.35;;;;;;;-0.10;100.00;98996.88;5029716;28;20034;-68
2022/04/10 03:29:29;;;;;;;5.72;2.28;;;;;;;-0.23;100.00;98991.75;5027807;28;20049;-69
2022/04/10 03:31:54;;;;;;;7.25;2.97;;;;;;;-0.41;100.00;98999.47;5031889;28;20100;-68
2022/04/10 03:34:20;;;;;;;6.15;2.40;;;;;;;-0.40;100.00;99005.63;5029202;28;20103;-69
2022/04/10 03:36:45;;;;;;;5.65;2.42;;;;;;;-0.43;100.00;98998.75;5025675;28;20100;-68
2022/04/10 03:39:10;;;;;;;5.60;2.22;;;;;;;-0.54;100.00;99006.78;5029689;28;20036;-68
2022/04/10 03:41:36;;;;;;;6.15;2.70;;;;;;;-0.53;100.00;99016.44;5028512;28;20025;-69
2022/04/10 03:44:01;;;;;;;4.10;2.22;;;;;;;-0.60;100.00;99023.22;5029591;28;20029;-69
2022/04/10 03:46:26;;;;;;;4.78;2.33;;;;;;;-0.75;100.00;98989.00;5027126;28;20017;-69
2022/04/10 03:48:52;;;;;;;6.78;2.92;;;;;;;-0.54;100.00;99022.72;5024239;28;20423;-69
2022/04/10 03:51:17;;;;;;;5.78;2.83;;;;;;;-0.62;100.00;99031.31;5029189;28;20037;-69
2022/04/10 03:53:43;;;;;;;3.97;2.47;;;;;;;-0.65;100.00;99028.09;5030797;28;20106;-68
2022/04/10 03:56:08;;;;;;;4.57;2.53;;;;;;;-0.54;100.00;99022.72;5030368;28;20036;-68
2022/04/10 03:58:33;;;;;;;10.70;2.97;;;;;;;-0.49;100.00;99032.00;5030131;28;20044;-69
2022/04/10 04:00:59;;;;;;;5.43;2.80;;;;;;;-0.44;100.00;99028.97;5031822;28;20109;-68
2022/04/10 04:03:24;;;;;;;5.15;2.90;;;;;;;-0.52;100.00;99015.47;5023105;28;20083;-68
2022/04/10 04:05:49;;;;;;;4.43;2.60;;;;;;;-0.36;100.00;99036.28;5045910;22;20037;-72
2022/04/10 04:08:15;;;;;;;7.70;3.35;;;;;;;-0.35;100.00;99038.81;4999615;28;20060;-71
2022/04/10 04:10:41;;;;;;;7.57;2.83;;;;;;;-0.26;100.00;99042.53;4997800;28;20034;-71
2022/04/10 04:13:06;;;;;;;5.10;2.47;;;;;;;-0.34;100.00;99019.25;5015649;28;20457;-71
2022/04/10 04:15:31;;;;;;;4.35;2.17;;;;;;;-0.28;100.00;99041.81;5018205;28;20018;-71
2022/04/10 04:17:57;;;;;;;7.40;2.75;;;;;;;-0.37;100.00;99035.44;5019344;28;20083;-71
2022/04/10 04:20:22;;;;;;;7.90;2.95;;;;;;;-0.52;100.00;99047.38;5015015;28;20030;-71
2022/04/10 04:22:48;;;;;;;7.97;2.97;;;;;;;-0.52;100.00;99039.38;5015140;28;20022;-71
2022/04/10 04:25:14;;;;;;;5.90;2.85;;;;;;;-0.30;100.00;99057.88;5005901;28;20022;-71
2022/04/10 04:27:39;;;;;;;9.05;3.15;;;;;;;-0.28;100.00;99049.78;5016001;28;20384;-71
2022/04/10 04:30:06;;;;;;;6.82;2.42;;;;;;;-0.37;100.00;99059.34;5017975;28;20025;-71
2022/04/10 04:32:31;;;;;;;6.38;3.08;;;;;;;-0.25;100.00;99065.47;5011251;28;20030;-71
2022/04/10 04:34:57;;;;;;;6.70;2.80;;;;;;;-0.33;100.00;99078.56;5023560;28;20095;-72
2022/04/10 04:37:22;;;;;;;4.82;2.40;;;;;;;-0.34;100.00;99077.72;5017621;28;20475;-71
2022/04/10 04:39:47;;;;;;;6.70;2.85;;;;;;;-0.38;100.00;99076.28;5003093;28;20108;-71
2022/04/10 04:42:13;;;;;;;6.90;3.05;;;;;;;-0.15;100.00;99084.16;5012104;28;20171;-72
2022/04/10 04:44:38;;;;;;;10.40;3.10;;;;;;;-0.13;100.00;99072.44;5008774;28;20053;-71
2022/04/10 04:47:03;;;;;;;7.35;3.30;;;;;;;0.07;100.00;99086.69;5000456;28;20404;-72
2022/04/10 04:49:29;;;;;;;5.68;3.03;;;;;;;0.00;100.00;99077.56;5012903;28;20033;-72
2022/04/10 04:51:54;;;;;;;5.47;2.95;;;;;;;0.11;100.00;99092.63;5019418;28;20021;-72
2022/04/10 04:54:20;;;;;;;7.43;2.80;;;;;;;0.06;100.00;99095.66;5012020;28;20390;-72
2022/04/10 04:56:45;;;;;;;8.57;2.45;;;;;;;0.05;100.00;99085.97;5010890;28;20056;-72
2022/04/10 04:59:14;;;;;;;6.72;3.05;;;;;;;0.21;100.00;99088.22;5015440;28;20109;-71
2022/04/10 05:01:41;;;;;;;7.20;3.05;;;;;;;0.32;100.00;99097.94;5011230;28;20088;-72
2022/04/10 05:04:07;;;;;;;10.10;3.45;;;;;;;0.32;100.00;99089.94;4992365;28;20044;-72
2022/04/10 05:06:32;;;;;;;6.28;2.75;;;;;;;0.40;100.00;99104.28;5000790;28;20021;-72
2022/04/10 05:08:57;;;;;;;5.70;2.88;;;;;;;0.33;100.00;99092.47;5013949;28;20042;-76
2022/04/10 05:11:23;;;;;;;4.38;2.45;;;;;;;0.29;100.00;99096.38;4994011;28;20399;-76
2022/04/10 05:13:48;;;;;;;5.82;2.88;;;;;;;0.12;100.00;99099.63;5012211;28;20483;-74
2022/04/10 05:16:13;;;;;;;6.07;2.80;;;;;;;0.10;100.00;99097.06;5019538;28;20033;-75
2022/04/10 05:18:38;;;;;;;5.43;2.92;;;;;;;0.30;100.00;99097.22;5015216;28;20026;-77
2022/04/10 05:21:04;;;;;;;5.38;2.78;;;;;;;0.34;100.00;99115.47;5002593;28;20033;-76
2022/04/10 05:23:30;;;;;;;7.10;3.20;;;;;;;0.28;100.00;99107.13;5008916;28;20048;-75
2022/04/10 05:25:55;;;;;;;9.18;2.90;;;;;;;0.33;100.00;99121.72;5002215;28;20250;-75
2022/04/10 05:28:22;;;;;;;5.53;3.03;;;;;;;0.28;100.00;99102.66;5012757;28;20506;-74
2022/04/10 05:30:47;;;;;;;7.35;2.88;;;;;;;0.57;100.00;99117.94;5015370;28;20029;-75
2022/04/10 05:33:13;;;;;;;4.70;2.90;;;;;;;0.80;100.00;99123.97;5014782;28;20030;-74
2022/04/10 05:35:38;;;;;;;6.50;3.17;;;;;;;0.88;100.00;99124.97;5006608;28;20104;-75
2022/04/10 05:38:04;;;;;;;4.70;3.08;;;;;;;0.84;100.00;99118.22;5016676;28;20120;-73
2022/04/10 05:40:30;;;;;;;6.10;2.90;;;;;;;1.25;100.00;99147.53;5010820;28;20049;-79
2022/04/10 05:42:56;;;;;;;12.15;3.20;;;;;;;1.13;100.00;99117.50;4984161;28;20064;-78
2022/04/10 05:45:22;;;;;;;9.32;3.10;;;;;;;1.20;100.00;99152.44;4988110;28;20626;-78
2022/04/10 05:47:47;;;;;;;6.97;3.42;;;;;;;0.97;100.00;99111.81;5011461;28;20036;-76
2022/04/10 05:50:13;;;;;;;5.45;3.20;;;;;;;1.27;100.00;99159.75;5015171;28;20026;-78
2022/04/10 05:52:41;;;;;;;5.47;3.08;;;;;;;0.94;100.00;99123.59;5015096;28;20025;-78
2022/04/10 05:55:08;;;;;;;7.13;3.45;;;;;;;1.15;100.00;99155.50;5011871;28;20029;-78
2022/04/10 05:57:34;;;;;;;7.40;3.55;;;;;;;1.23;100.00;99161.03;4985638;28;20026;-77
2022/04/10 05:59:59;;;;;;;5.80;3.40;;;;;;;2.72;98.14;99130.56;4992178;28;20109;-78
2022/04/10 06:02:25;;;;;;;7.15;3.33;;;;;;;5.31;79.46;99163.59;5011173;28;20068;-70
2022/04/10 06:04:50;;;;;;;5.03;3.10;;;;;;;7.73;67.43;99143.38;5013035;28;20030;-75
2022/04/10 06:07:15;;;;;;;5.65;2.40;;;;;;;10.51;55.57;99149.34;4988897;28;20070;-74
2022/04/10 06:09:40;;;;;;;4.93;2.45;;;;;;;12.20;51.29;99137.34;5014100;28;20045;-73
2022/04/10 06:12:07;;;;;;;8.15;2.80;;;;;;;11.57;50.50;99153.81;5005725;28;20040;-75
2022/04/10 06:14:32;;;;;;;7.25;3.13;;;;;;;8.97;55.55;99161.97;4991542;28;20449;-73
2022/04/10 06:16:57;;;;;;;6.05;2.70;;;;;;;7.00;63.33;99169.56;5012284;28;20026;-74
2022/04/10 06:19:23;;;;;;;4.65;2.92;;;;;;;5.86;71.24;99184.59;5014074;28;20025;-73
2022/04/10 06:21:48;;;;;;;10.20;4.47;;;;;;;4.97;74.10;99168.97;5013647;28;20447;-73
2022/04/10 06:24:13;;;;;;;7.07;3.72;;;;;;;4.38;79.45;99199.03;5012171;28;20038;-75
2022/04/10 06:26:40;;;;;;;5.80;3.30;;;;;;;4.05;81.18;99195.19;5010528;28;20041;-73
2022/04/10 06:29:06;;;;;;;5.82;3.40;;;;;;;4.00;83.27;99189.44;5007513;28;20510;-73
2022/04/10 06:31:31;;;;;;;7.07;3.35;;;;;;;3.81;82.41;99217.19;5013203;28;20033;-73
2022/04/10 06:33:57;;;;;;;6.68;3.17;;;;;;;3.95;84.41;99210.47;5004700;28;20038;-73
2022/04/10 06:36:25;;;;;;;5.00;3.38;;;;;;;4.16;83.21;99192.28;5006603;28;20532;-75
2022/04/10 06:38:51;;;;;;;5.55;3.20;;;;;;;4.43;82.49;99201.25;5014170;28;20464;-75
2022/04/10 06:41:16;;;;;;;7.20;3.83;;;;;;;4.60;81.91;99210.25;5012153;28;20101;-73
2022/04/10 06:43:42;;;;;;;8.50;3.70;;;;;;;4.39;82.48;99192.66;5015015;28;20022;-76
2022/04/10 06:46:08;;;;;;;4.93;3.67;;;;;;;4.53;81.30;99195.78;4996289;28;20160;-75
2022/04/10 06:48:35;;;;;;;8.27;3.72;;;;;;;4.82;80.97;99188.31;4999640;28;20054;-74
2022/04/10 06:51:01;;;;;;;8.85;3.17;;;;;;;4.88;78.43;99186.84;5003011;28;20028;-73
2022/04/10 06:53:26;;;;;;;12.80;3.10;;;;;;;5.39;79.03;99201.19;5016653;28;20100;-70
2022/04/10 06:55:51;;;;;;;5.53;3.25;;;;;;;5.49;77.24;99177.78;5018332;28;20046;-73
2022/04/10 06:58:19;;;;;;;7.70;3.65;;;;;;;5.99;77.49;99199.44;5020551;28;20578;-72
2022/04/10 07:00:44;;;;;;;4.15;2.70;;;;;;;6.30;73.99;99200.50;5021899;28;20048;-72
2022/04/10 07:03:10;;;;;;;7.88;2.70;;;;;;;7.29;69.84;99205.81;5018742;28;20030;-72
2022/04/10 07:05:36;;;;;;;8.90;3.35;;;;;;;7.47;69.43;99209.97;5004730;28;20032;-72
2022/04/10 07:08:01;;;;;;;6.88;3.42;;;;;;;7.38;69.89;99185.94;5030255;28;20036;-72
2022/04/10 07:10:28;;;;;;;6.97;3.55;;;;;;;7.35;70.59;99191.66;5012763;28;20368;-72
2022/04/10 07:12:53;;;;;;;5.78;3.38;;;;;;;7.21;70.59;99209.38;5004493;28;20038;-69
2022/04/10 07:15:19;;;;;;;7.22;3.90;;;;;;;7.03;72.85;99196.97;5006718;28;20117;-73
2022/04/10 07:17:44;;;;;;;10.60;4.95;;;;;;;6.93;73.23;99207.06;5014088;28;20398;-67
2022/04/10 07:20:10;;;;;;;7.50;4.07;;;;;;;6.91;71.31;99217.13;5012391;28;20522;-69
2022/04/10 07:25:19;;;;;;;4.25;3.08;;;;;;;6.68;72.76;99217.00;5005028;28;20028;-70
2022/04/10 07:27:44;;;;;;;5.63;3.17;;;;;;;6.99;71.66;99219.81;4998895;28;20030;-68
2022/04/10 07:30:10;;;;;;;7.15;3.30;;;;;;;7.00;72.38;99212.59;5004255;28;20061;-68
2022/04/10 07:32:37;;;;;;;7.93;3.17;;;;;;;7.33;69.05;99212.53;5003792;28;20017;-68
2022/04/10 07:35:04;;;;;;;6.25;3.17;;;;;;;7.25;70.59;99214.22;5008611;28;20039;-68
2022/04/10 07:37:29;;;;;;;6.38;2.70;;;;;;;7.02;68.42;99208.75;5004543;28;20087;-69
2022/04/10 07:39:54;;;;;;;8.45;3.67;;;;;;;7.39;66.95;99199.22;4999907;28;20026;-69
2022/04/10 07:42:20;;;;;;;4.70;2.65;;;;;;;7.72;68.84;99212.56;5001886;28;20050;-69
2022/04/10 07:44:45;;;;;;;5.65;2.92;;;;;;;7.73;66.01;99216.09;4998847;28;20029;-69
2022/04/10 07:47:26;;;;;;;4.32;2.58;;;;;;;8.22;67.10;99208.59;4991270;28;20041;-68
2022/04/10 07:49:53;;;;;;;4.82;2.50;;;;;;;8.06;61.87;99212.22;4998264;28;20559;-71
2022/04/10 07:52:18;;;;;;;5.78;2.35;;;;;;;8.09;60.76;99211.84;4984581;28;20034;-69
2022/04/10 07:54:44;;;;;;;8.48;2.25;;;;;;;8.27;59.99;99218.84;4997643;28;20057;-68
2022/04/10 07:57:09;;;;;;;6.43;2.15;;;;;;;8.37;59.09;99229.41;4985380;28;21265;-69
2022/04/10 07:59:34;;;;;;;5.82;2.22;;;;;;;8.60;58.53;99232.97;4987984;28;20025;-69
2022/04/10 08:02:01;;;;;;;4.80;1.95;;;;;;;8.37;57.60;99234.78;5000306;28;20029;-73
2022/04/10 08:04:27;;;;;;;5.65;2.40;;;;;;;8.43;57.06;99245.72;5005781;28;20026;-69
2022/04/10 08:06:52;;;;;;;5.25;2.30;;;;;;;8.53;56.11;99243.63;5006186;28;20129;-69
2022/04/10 08:09:18;;;;;;;3.03;1.77;;;;;;;8.92;55.93;99242.66;5002092;28;20029;-68
2022/04/10 08:11:43;;;;;;;3.92;2.00;;;;;;;9.30;55.52;99242.66;4997613;28;20383;-69
2022/04/10 08:14:08;;;;;;;3.72;1.80;;;;;;;9.60;53.88;99250.75;4999024;28;20033;-70
2022/04/10 08:16:34;;;;;;;4.57;2.33;;;;;;;9.69;53.90;99252.34;5000794;28;20022;-68
2022/04/10 08:18:59;;;;;;;6.55;1.90;;;;;;;9.78;52.53;99250.41;5003292;28;20022;-70
2022/04/10 08:21:25;;;;;;;5.90;2.10;;;;;;;10.21;51.60;99251.34;4998798;28;20053;-68
2022/04/10 08:23:50;;;;;;;4.00;1.90;;;;;;;10.29;50.83;99253.97;5003969;28;20088;-69
2022/04/10 08:26:15;;;;;;;5.90;1.83;;;;;;;10.30;51.50;99255.66;5000116;28;20029;-71
2022/04/10 08:28:40;;;;;;;3.47;1.90;;;;;;;10.20;51.15;99259.66;4987155;28;20036;-68
2022/04/10 08:31:06;;;;;;;5.38;2.33;;;;;;;9.71;52.73;99257.56;5003797;28;20030;-68
2022/04/10 08:33:31;;;;;;;3.03;1.83;;;;;;;9.53;54.47;99257.94;5002772;28;20434;-68
2022/04/10 08:35:57;;;;;;;4.50;2.10;;;;;;;9.35;54.84;99245.63;5002991;28;20038;-70
2022/04/10 08:38:22;;;;;;;8.15;2.25;;;;;;;9.32;53.20;99255.94;5001506;28;20053;-73
2022/04/10 08:40:49;;;;;;;6.28;2.00;;;;;;;9.50;53.01;99258.31;5010196;28;20060;-75
2022/04/10 08:43:14;;;;;;;4.68;2.15;;;;;;;9.71;53.52;99254.88;5010237;28;20088;-74
2022/04/10 08:45:40;;;;;;;5.07;2.05;;;;;;;9.91;53.82;99263.25;5012418;28;20022;-74
2022/04/10 08:48:06;;;;;;;4.50;2.15;;;;;;;10.05;52.42;99267.78;4993313;28;20026;-73
2022/04/10 08:50:32;;;;;;;4.53;1.98;;;;;;;10.06;52.65;99274.84;5006676;28;20458;-73
2022/04/10 08:52:58;;;;;;;8.35;2.33;;;;;;;10.33;52.72;99280.66;4983409;28;20045;-71
2022/04/10 08:55:25;;;;;;;5.00;2.45;;;;;;;10.61;51.27;99272.63;4988728;28;20842;-70
2022/04/10 08:57:50;;;;;;;5.15;2.38;;;;;;;11.82;49.21;99276.13;5008428;28;20044;-71
2022/04/10 09:00:19;;;;;;;4.57;1.80;;;;;;;13.15;45.67;99271.09;5013477;28;20017;-71
2022/04/10 09:02:52;;;;;;;4.90;2.38;;;;;;;13.71;43.93;99259.81;5006449;28;20088;-70
2022/04/10 09:05:19;;;;;;;4.82;2.25;;;;;;;13.85;42.46;99251.63;5007432;28;20093;-77
2022/04/10 09:08:11;;;;;;;6.72;2.65;;;;;;;13.77;43.42;99266.28;5008823;28;20060;-71
2022/04/10 09:11:00;;;;;;;3.90;1.95;;;;;;;13.15;44.74;99271.09;5004030;28;20031;-71
2022/04/10 09:13:27;;;;;;;3.70;2.55;;;;;;;12.70;46.24;99268.13;5010975;28;20039;-71
2022/04/10 09:16:01;;;;;;;5.60;2.42;;;;;;;12.09;46.20;99268.97;4988361;28;20034;-71
2022/04/10 09:18:27;;;;;;;5.43;2.05;;;;;;;12.03;46.58;99270.63;5004269;28;20025;-71
2022/04/10 09:21:08;;;;;;;5.75;2.10;;;;;;;11.61;47.21;99252.66;5005361;28;20530;-71
2022/04/10 09:23:34;;;;;;;4.65;2.22;;;;;;;11.65;48.14;99281.00;5007448;28;20030;-71
2022/04/10 09:26:00;;;;;;;5.53;2.85;;;;;;;10.99;49.87;99275.91;5007297;28;20113;-71
2022/04/10 09:28:54;;;;;;;6.18;2.40;;;;;;;10.57;50.86;99285.69;5009707;28;20168;-70
2022/04/10 09:31:42;;;;;;;4.68;2.53;;;;;;;10.36;51.42;99272.16;4990361;28;20511;-70
2022/04/10 09:34:10;;;;;;;5.13;2.60;;;;;;;10.30;52.62;99280.00;4999495;28;20034;-69
2022/04/10 09:36:35;;;;;;;6.45;2.55;;;;;;;10.22;53.22;99285.47;5013527;28;20033;-70
2022/04/10 09:39:06;;;;;;;5.95;3.00;;;;;;;9.91;54.27;99271.34;4990073;28;20022;-70
2022/04/10 09:41:31;;;;;;;7.63;3.17;;;;;;;9.74;53.57;99281.50;5010514;28;20467;-70
2022/04/10 09:44:17;;;;;;;6.88;3.10;;;;;;;9.27;55.30;99290.75;5016371;28;20033;-70
2022/04/10 09:46:43;;;;;;;6.82;3.10;;;;;;;9.04;57.01;99286.25;4989402;28;20132;-70
2022/04/10 09:49:17;;;;;;;5.53;2.83;;;;;;;8.74;57.45;99296.91;5013045;28;20046;-71
2022/04/10 09:52:07;;;;;;;7.18;2.72;;;;;;;8.30;59.10;99291.25;5009430;28;20022;-70
2022/04/10 09:54:50;;;;;;;5.18;2.63;;;;;;;8.31;60.51;99295.66;5001894;28;20383;-69
2022/04/10 09:57:17;;;;;;;7.43;3.22;;;;;;;7.85;61.76;99296.34;5011791;28;20087;-70
2022/04/10 09:59:44;;;;;;;5.68;3.25;;;;;;;7.83;64.00;99300.22;5006850;28;20029;-70
2022/04/10 10:02:18;;;;;;;5.72;3.10;;;;;;;7.88;63.40;99306.75;5008737;28;20101;-71
2022/04/10 10:04:46;;;;;;;9.07;3.13;;;;;;;7.71;64.46;99301.63;5004810;28;20030;-69
2022/04/10 10:07:20;;;;;;;7.28;3.03;;;;;;;7.68;65.61;99302.81;4986663;28;20030;-70
2022/04/10 10:09:48;;;;;;;6.18;3.30;;;;;;;7.98;66.58;99306.56;5010274;28;20037;-70
2022/04/10 10:12:14;;;;;;;8.20;3.13;;;;;;;8.34;65.82;99298.00;5009449;28;20025;-71
2022/04/10 10:14:40;;;;;;;6.57;3.03;;;;;;;9.03;63.40;99306.16;5010464;28;20034;-70
2022/04/10 10:17:08;;;;;;;7.18;2.78;;;;;;;9.70;59.65;99286.44;5007107;28;20045;-70
2022/04/10 10:19:35;;;;;;;6.82;3.08;;;;;;;10.51;58.44;99289.19;4991767;28;20017;-70
2022/04/10 10:22:03;;;;;;;5.88;3.03;;;;;;;11.18;55.58;99291.50;5005277;28;20120;-70
2022/04/10 10:25:10;;;;;;;6.82;2.90;;;;;;;12.42;53.27;99282.69;5005938;28;20021;-70
2022/04/10 10:27:54;;;;;;;6.00;2.78;;;;;;;13.82;48.97;99283.63;4998761;28;20499;-70
2022/04/10 10:30:35;;;;;;;4.40;2.42;;;;;;;15.43;44.95;99270.00;5018195;28;20542;-68
2022/04/10 10:33:09;;;;;;;5.55;2.42;;;;;;;16.08;42.42;99275.03;5003343;28;20026;-69
2022/04/10 10:35:41;;;;;;;6.28;2.75;;;;;;;16.72;41.10;99270.03;5009856;28;20018;-69
2022/04/10 10:38:27;;;;;;;5.53;2.70;;;;;;;19.17;37.75;99263.72;5011151;28;20492;-69
2022/04/10 10:41:07;;;;;;;4.55;2.35;;;;;;;20.07;34.35;99268.16;5008149;28;20583;-69
2022/04/10 10:43:32;;;;;;;4.50;2.40;;;;;;;19.53;36.34;99261.56;4995076;28;20380;-69
2022/04/10 10:45:58;;;;;;;7.72;2.58;;;;;;;21.01;33.88;99255.22;5001738;28;20024;-69
2022/04/10 10:48:32;;;;;;;3.30;2.30;;;;;;;20.13;32.95;99263.56;5011570;28;20033;-69
2022/04/10 10:51:09;;;;;;;3.60;2.17;;;;;;;21.63;32.03;99257.44;5012060;28;20460;-69
2022/04/10 10:53:55;;;;;;;4.35;2.45;;;;;;;21.49;31.52;99258.97;4993654;28;20021;-69
2022/04/10 10:56:26;;;;;;;4.97;2.60;;;;;;;21.15;32.39;99261.16;5008213;28;20549;-69
2022/04/10 10:58:55;;;;;;;5.63;2.40;;;;;;;20.62;33.53;99247.16;5011113;28;20022;-69
2022/04/10 11:01:28;;;;;;;4.47;2.60;;;;;;;18.70;35.70;99259.28;5008831;28;20027;-69
2022/04/10 11:04:09;;;;;;;5.20;2.28;;;;;;;18.15;35.91;99257.94;5011312;28;20030;-69
2022/04/10 11:06:45;;;;;;;6.35;2.60;;;;;;;17.84;37.14;99258.34;5011091;28;20403;-69
2022/04/10 11:09:31;;;;;;;6.05;3.13;;;;;;;18.24;36.22;99261.13;5011276;28;20034;-69
2022/04/10 11:11:58;;;;;;;4.30;2.47;;;;;;;20.22;34.30;99261.19;5010945;28;20049;-69
2022/04/10 11:14:31;;;;;;;5.15;2.72;;;;;;;18.46;35.87;99260.47;5010801;28;20445;-69
2022/04/10 11:17:32;;;;;;;6.78;2.75;;;;;;;16.24;38.05;99258.03;5025951;28;20029;-69
2022/04/10 11:20:07;;;;;;;5.85;2.70;;;;;;;17.04;38.75;99216.78;4994233;28;20110;-67
2022/04/10 11:22:58;;;;;;;5.10;2.53;;;;;;;19.55;35.08;99243.78;5005222;28;20586;-71
2022/04/10 11:25:26;;;;;;;4.47;2.40;;;;;;;19.19;35.52;99242.38;5006395;28;20057;-70
2022/04/10 11:27:56;;;;;;;4.70;2.58;;;;;;;19.61;35.10;99229.03;5007968;28;20025;-70
2022/04/10 11:30:23;;;;;;;4.28;2.30;;;;;;;17.80;36.57;99248.97;5006166;28;20029;-70
2022/04/10 11:32:49;;;;;;;5.35;2.65;;;;;;;17.98;37.58;99245.25;5009359;28;20022;-70
2022/04/10 11:35:23;;;;;;;5.70;2.50;;;;;;;16.63;39.58;99248.47;5007426;28;20096;-71
2022/04/10 11:37:51;;;;;;;4.90;2.83;;;;;;;15.99;40.15;99245.31;5007427;28;20029;-72
2022/04/10 11:40:19;;;;;;;5.28;3.05;;;;;;;14.98;40.82;99238.28;5007200;28;20491;-72